« 2010年1月 | トップページ | 2010年3月 »

2010年2月

2010年2月28日 (日)

2月最後の週末は・・・・・雨

RJAA 270000Z 03022G35KT 6000 SHRA BR FEW003 BKN006 BKN020 09/08 Q1006 WS R34R TEMPO 4000 SHRA BR
RJAA 270300Z 03021G31KT 9999 -RA FEW009 BKN010 08/05 Q1009 NOSIG
RJAA 270600Z 04015KT 9999 SCT010 BKN060 BKN110 07/05 Q1011 WS R34L WS R34R TEMPO 02018G30KT
RJAA 270900Z 04010KT 350V060 9999 SCT010 BKN100 06/04 Q1013 WS R34L NOSIG

27日(土)rainraintyphoon slateで遊んだりしたけど・・・・つまらない(泣)
夕方になり、飛行場の近くに新築の家を買ったS本夫妻と成田温泉spaに行ってみる~
ちょっと高いけど食事も美味しいし近くの割にはOKかも!
94B95754-0403-4BC2-B152-4AA55826EB44
かんぱ~いbeerbeer
AC197652-BD96-4379-AE96-A8F2765E9363
王蟲の眼?みたいなピザgood
54FC328B-2A9B-4B4C-A5EA-53F9344DDA57
天婦羅蕎麦・・・・美味しいけど・・・量が凄い!
RJAA 280000Z 02016KT 6000 -RA BR FEW005 SCT010 BKN040 04/03 Q1013 TEMPO 02016G28KT 4000 RA BR BKN006 BKN012
RJAA 280300Z 35009KT 2200 SHSN BR FEW002 BKN004 02/01 Q1014 TEMPO 02016G28KT RMK 1ST002 7ST004 A2995
RJAA 280600Z 36010KT 330V040 9999 FEW003 BKN006 04/03 Q1013 BECMG BKN012
RJAA 280900Z 08005KT 020V120 9999 FEW012 04/02 Q1015 NOSIG


----------------------------------------------------------------------------------------------------------------------

28日(日)rainraintyphoon 飛行場のクラブハウスにはrainなのにクラブ員が数名集まっています(笑)
昼過ぎになり雨があがったけど雲底が低い~
日没1時間前になってようやく飛べる天気になり、朝から粘っていたmoguji~さんが、本日入会された方を誘って飛んでいました。
私は、こっそりmoguji~さんの飛ぶ機体にG○S付きの×○×△φωを仕掛けて・・・・
( ̄ー ̄)ニヤリscissors

|

2010年2月25日 (木)

水道工事と濃霧と春一番♪

RJTT 242309Z 06003KT 030V090 0100 R34L/0300N R22///// R34R/0250N FG VV000 08/07Q1024 RMK A3026
RJTT 250100Z 08004KT 0200 R34L/0450V0750U R22///// R34R/0250V0300N FG VV001 09/08 Q1024
RJTT 250200Z 11004KT 070V140 0300 R34L/0800V1500D R22///// R34R/0300V0550U FG VV002 09/08 Q1023 RMK A3022
RJTT 250300Z 11003KT 2000 R34L/P1800N R22///// R34R/0350V0700N PRFG BR FEW001 SCT002 10/09 Q1021
RJTT 250600Z 18021KT CAVOK 17/09 Q1019 RMK A3010
RJTT 250900Z 18016KT 9999 FEW030 SCT070 BKN/// 16/07 Q1019 RMK 1CU030 3AC070 A3010

RJAA 242000Z 22002KT 0100 R34L/0250V0300N R34R/0250V0350N FG VV001 04/04 Q1024 NOSIG
RJAA 242100Z 15002KT 1800 BR SCT005 BKN011 04/04 Q1023 NOSIG
RJAA 242200Z VRB01KT 2800 BR FEW003 BKN006 06/05 Q1024 NOSIG RMK 1ST003 7ST006 A3025
RJAA 250000Z VRB01KT 2200 BR FEW002 BKN004 09/09 Q1024 NOSIG RMK 1ST002 7ST004 A3026
RJAA 250300Z 19007KT 140V240 9999 FEW025 16/08 Q1021 NOSIG RMK 2CU025 A3017
RJAA 250500Z 15014KT 9999 FEW030 BKN/// 17/10 Q1020 NOSIG
RJAA 250900Z 18006KT 9999 FEW030 BKN/// 15/10 Q1020 NOSIG RMK 1CU030 A3012

今日は自宅の水道工事立会いの為、仕事はお休み。家を建て替えた時に水道工事も徹底的にやっておけば
良かったのだが、水道管はそのまま使用していたので敷地内の数箇所で漏水が発生(泣)
工事そのものは数回に分けて行い、今日で完了の予定・・・・
午後から仕事に行くのもなんだから、飛行場に行く事にしました。

久しぶりにG109Bを飛ばすつもりで飛行場に行くと、JA2429が訓練フライトをしていました。わざわざ、もう
1機を出すのも気が引けたので素直に順番待ちをしていたら、横風が強くなってきました・・・・・
ほぼ真横の風10KT程度でしょうか?真横ってのは正対風成分になったり背風成分になったり・・・難しい問題です(笑)
まぁ、一人なので気が楽です(笑)



Photo 南風が吹いて春一番が飛行場にやって来ました♪

G109b1 久しぶりのG109Bです。

G109b ラダーペダルとフットブレーキ

G109b3 左側のインパネ・・・・主に航法計器

G109b4 ラジオラック

G109b5 右側のインパネ・・・・主にエンジン計器

Photo_2 RWY25で離陸後、騒音苦情区域(私の自宅付近です)を避けて印旛沼方面へ

Photo_3 今年の7月に開通する成田スカイアクセス鉄道

Photo_5 cameraby H某社員さま♪



JA2429/G109B  0+30 PIC

|

2010年2月21日 (日)

次々と壊れていく~(泣)

最近、水道管、ボイラー、家電製品など次々と壊れています~weep

昨年末、自宅敷地内で漏水・・・・sweat02
自宅までの水道管は昔の家のままだったから・・・・多分、50年近く前の物?
今の家までの新造工事・・・・moneybagupdollar

平成8年に取り替えたボイラーが・・・・漏水・・・・sweat02
凍結してた!
( ̄◆ ̄;)

我が家最後のベータ式ビデオデッキ・・・・・BetaPRO SL-HF900movie
購入してから25年・・故障せずに良く働いてくれました。
・・・・ベルト切れなので部品を探して復活させます!

サンスイのオーディオアンプ AU907slate
これも購入して25年、故障せずに頑張りましたが・・・・
最近、電源が入らなくなりました。
電解コンデンサーが怪しいので、これも修理しなければ・・・

その他にも、LDプレヤーや無線機、その他モロモロ・・・・ガラクタが増えていきますpostoffice

車も今年で14年目なので、それそろ買い替えかな?rvcar
でも、まだ走るしねぇ~(笑)
私は何でも壊れるまで使う主義です!
特に車は新車で買って寿命まで使い倒します♪

って訳で、最近は良く物が壊れるなぁ~なんて考えていたら自分が壊れました
土曜日は仕事で飛行場に行けず、夕飯だけでもと大阪からモグラを飛ばしに来たタブパパやモグラ訓練生のガスターと地元の和食レストランで盛り上がりましたが・・・・
翌日、目が覚めたら喉が痛くて・・・・自宅で寝ていました(泣)
こう言う時に限って天気が良く、みんなが楽しそうに飛んでいるのを自宅で見ているのは・・・・ツライです。
幸いな事に、騒音苦情区域の拡大によってRWY25の上昇経路が変更され、拙宅からは離れた場所を飛ぶようになったので音は気にならない・・・・気にならない・・・・気に・・・・・気になるぢゃないか!
sweat01


Img_0165s
タブパパcat(左)とガスターtyphoon(右)




 

|

2010年2月18日 (木)

雪のち韓豚屋~

Img_0152s
朝起きたら。。。田んぼが真っ白けsnowsnowsnow

Img_0154s
まだ日が昇って無いうちに自宅を出ます・・・寒いなぁ~snowsnowsnow

Img_0157s
最寄駅に着く頃にはは明るくなってきます。電車も通常運転中でなによりですtrain

Img_0160s
無事に仕事を終え、JR神田駅近くの韓国料理店韓豚屋に集結します(笑)

今日はTKD教官、カッキー教官、モグラ男(ex:バスマン)、斉○先輩、私の5名が集まりました。久しぶりに盛り上がった平日の夜でした(笑)

Img_0162s
やっぱり、これですよね!pig





|

2010年2月15日 (月)

超高速カメラ

以前は高嶺の花だった超高速カメラも庶民に手が届く様になりましたね!
今度、これでグアムの実弾射撃を撮影したら面白そうだなぁ~( ̄ー ̄)ニヤリ

飛行場で離着陸風景の撮影やゴルフのスイングなんかの撮影にもお勧めかもよ!

Photo_2
カシオの最大1200fps(毎秒1200コマ)の超高速カメラ


|

2010年2月14日 (日)

ターボアローで鱒寿司の買出し

RJAA 132311Z 26003KT 230V300 0100 R16R/0800V1400D R16L/0650V1100D FZFG VV001 M01/M02 Q1027 RMK A3034
RJAA 140000Z 31003KT 270V340 0400 R16R/0750V1600U R16L/0450V1100U FZFG SCT001 BKN002 M01/M01 Q1027 NOSIG
RJAA 140200Z VRB02KT 8000 FEW004 04/M01 Q1026 BECMG 03005KT
RJNT 140300Z 29005KT 230V310 9999 FEW030 BKN/// 04/M02 Q1024
RJNT 140400Z 34005KT 9999 FEW030 BKN/// 04/M03 Q1024
RJAA 140600Z 14008KT 110V180 9999 FEW030 BKN/// 07/M03 Q1025 NOSIG

通称ウルトラマンアローと言われているJA3786/P28RのW林オーナーのお誘い頂き、富山空港まで飛んできました。
W林オーナーの目的は富山の鱒寿司の買出しです(笑)
まさしく正しいオーナーパイロットです!
同行者は先日見事に自家用操縦士(動滑)の実地試験に合格されたSGKさんと、インドネシアで飛行機のライセンス
を取得したモグラライセンシーのMRTさんです。

Dscn2151s
往路はW林機長とMRTさんが前席です。

Dscn2153s
大利根を離陸して雲の穴からオントップ~!ってまだ高度2,000ftなのに(笑)

Dscn2155s
巡航高度は8,500~10,500ftです。TASは140KTと快適な空の旅!

Photo
榛名山の麓にある陸上自衛隊の相馬原駐屯地

Photo_2
浅間山

Photo_3
志賀万座方面

Photo_4
妙高

Photo_5
巡航風景

Photo_6
RJNT RWY02 ファイナル

Dscn2179s
昼飯~♪ 鱒寿司も付いています!白海老の掻き揚げ、ホタルイカもっ!

Dscn2180s
皆で昼飯~

Dscn2181s
駅前で鱒寿司を買い込んで空港連絡バスで戻ります

Dscn2182s
機体の向きを変え、お土産の鱒寿司をたくさん積み込んで出発準備

Dscn2183s
帰りは私が前席の座られてもらいました。

Dscn2186s
ANA機が出発する前に・・・急いで離陸しよっと!

RWY02で離陸後、最短ルートで大利根に帰ります。TASは145KT、対地速度は追い風の影響で175KTと快適です。
大利根には1時間30分程度で帰りました。モグラだと行きが2時間30分~3時間、帰りが2時間~2時間30分かかりますからターボアローは速いですね!



 

|

2010年2月 7日 (日)

10,000発鍋♪

航空廃神のひらおかさんが先日、グライダー曳航10,000発を達成したのを記念に10,000発鍋を振舞って下さりました!。それにしても10,000発ってのは尋常ぢゃないですよね?勿論、無事故で10,000発です!
大利根には、その他に陸単鍋と言うのがあって私は残念ながら食べられません。
(´;ω;`)ウウ・・・


10000
山本主任教官とひらおかさん

Img_0120s
今日のシェフは山本主任教官です。山梨名物「ほうとう」が入っているのがミソ!


ご馳走様でした!

 


続きを読む "10,000発鍋♪"

|

2010年2月 2日 (火)

常夏の翌日は雪・・・・・

グアムから帰国した翌日は・・・・・・
雪でした~snow
寒い~ぃ!

Dscn2150s
見事に雪景色

|

2010年2月 1日 (月)

第二次グアム合宿4日目

02月01日(日)【4日目最終日】
PGUM 312254Z 07014KT 10SM FEW023 OVC060 27/21 A2999
PGUM 010154Z 09011G19KT 10SM SCT023 29/22 A2995
PGUM 010354Z 07013G22KT 10SM FEW029 SCT060 30/21 A2989
PGUM 010454Z 07014G21KT 10SM FEW027 29/21 A2988
RJAA 010900Z 03014KT 4500 RA BR FEW008 BKN012 BKN030 04/02 Q1008 TEMPO 04016G27KT
RJAA 011000Z 03012KT 350V060 8000 -RA FEW008 BKN012 BKN030 04/02 Q1006 TEMPO 04016G27KT BKN004 BKN010 BECMG 4000 RA BR
RJAA 011243Z 36019KT 2400 R34L/0450VP1800D R34R/P1800N SNRA BR FEW002 BKN007 BKN025 01/00 Q1004 RMK 1ST002 6ST007 7SC025 A2967
RJAA 011430Z 35014KT 0700 R34L/1000V1600D R34R/1200N +SN FEW001 BKN003 BKN015 00/M00 Q1006 TEMPO 36016G27KT RMK 1ST001 5ST003 7SC015 A2971

今日は今回の合宿、最大の目的であるTSAの指紋取りです。
個人で取りに行くのは怖い(笑)のでTVAにサポートをお願いした。サポート料
は25USDだった。8時45分にTVAで待ち合わせて、青木美和教官と一緒に空港警察
に行く。途中、DHLに寄って採取した指紋をTSA本部に送付する送料支払い済みの
封筒を購入して行く。結構、手続きが面倒でサポートをお願いしてよかった!
空港警察の到着したが、担当官が行方不明で焦る。ちゃんと予約したのに・・・・(泣)
暫くするとやる気の無い担当官がやってきたて金を払って来いと言われ、窓口で
45USDを払って戻ってくると、担当官のオヤジが「機械がどこかに行ってしまった」
とか言ってる!青木教官が「うそでしょう~!」と力なく呟いた!
ガーン・・・なんてこった!

暫くして担当官のオヤジがバツが悪そうにやってきた・・・
指紋をとるから、申請者だけ来いと言われ独りで別の部屋に行く・・・
指紋を取る機械って・・・機械って言うぐらいだからどんなに凄いんだぁ~と
思ったら、CCDカメラでもなんでも無く、手に黒インクをローラーで塗って
紙に手を当てるだけのシロモノです。

5分で終わりましたよ!

まったくもぉ~!!!!!

5分で終わる作業に2時間以上も掛かってしまいました(笑)

青木教官のお陰で無事に指紋を取り終わりTVAに戻ります。

TVAに戻ると、スダチさん、つのやんが待ちくたびれていました(謝)
TVAに別れを告げてお昼はマイクロネシアモールのフードコートで済ませ、レンタ
カーを返します。帰りの便はJO942便で定刻どおりグアムを離陸しましたが、成田
に着陸する頃は3000ftまでは大雪で地上は大雨でした。つのやんはバスで、スダチ
さんは京成で羽田空港近くのホテルでもう1泊、私はJRで帰宅しましたが、自宅付近
はすでに雪で真っ白でした


おわり


Dscn2141s 今回宿泊したホテルの部屋。リビングにソファーベットがある!

Dscn2143s 簡単なキッチンが付いているので自炊も可能?

Dscn2145s マトにされた哀れなデジカメ、HDD、CDROMドライブ

20100201 グアム最後の朝飯~

Img_0100s グアム最後の昼飯~

Img_0104s そして、機内食+アルコールbeer

Dscn2147s グアムを離陸して1時間30分位で太平洋になんとなく島影が・・・・

Photo GPSのデータからおそらく小笠原諸島かな?

Img_0107s 突然、機首を8しまへ向ける・・・何があったんだ!

Img_0108s
と、思ったら8しまを回避して銚子沖へ・・・・



次回から正式訓練が開始される・・・・と思います。

|

« 2010年1月 | トップページ | 2010年3月 »